createdAt,value
2022-11-16T00:00:29.846Z,52.83
2022-11-16T00:01:29.827Z,48.11
2022-11-16T00:02:29.843Z,56.32
2022-11-16T00:03:29.844Z,54.12
2022-11-16T00:04:29.809Z,49.31
2022-11-16T00:05:29.801Z,47.14
2022-11-16T00:06:29.784Z,56.14
2022-11-16T00:07:30.842Z,55.33
2022-11-16T00:08:29.965Z,57.60
2022-11-16T00:09:29.794Z,51.16
2022-11-16T00:10:29.760Z,55.27
2022-11-16T00:11:29.758Z,55.14
2022-11-16T00:12:29.745Z,60.89
2022-11-16T00:13:29.737Z,59.24
2022-11-16T00:14:29.760Z,55.89
2022-11-16T00:15:29.724Z,46.58
2022-11-16T00:16:29.720Z,42.00
2022-11-16T00:17:29.705Z,52.67
2022-11-16T00:18:29.890Z,59.54
2022-11-16T00:19:29.722Z,55.91
2022-11-16T00:20:29.683Z,58.06
2022-11-16T00:21:29.675Z,51.47
2022-11-16T00:22:29.673Z,53.44
2022-11-16T00:23:29.662Z,46.23
2022-11-16T00:24:29.676Z,42.63
2022-11-16T00:25:29.645Z,41.89
2022-11-16T00:26:29.641Z,46.35
2022-11-16T00:27:29.628Z,53.34
2022-11-16T00:28:29.663Z,55.08
2022-11-16T00:29:29.640Z,54.50
2022-11-16T00:30:29.610Z,57.02
2022-11-16T00:31:29.599Z,63.08
2022-11-16T00:32:29.586Z,56.21
2022-11-16T00:33:30.589Z,49.86
2022-11-16T00:34:29.600Z,46.28
2022-11-16T00:35:29.571Z,49.11
2022-11-16T00:36:29.561Z,54.11
2022-11-16T00:37:29.560Z,46.07
2022-11-16T00:38:29.559Z,44.37
2022-11-16T00:39:29.571Z,52.84
2022-11-16T00:40:29.539Z,52.98
2022-11-16T00:41:29.528Z,54.80
2022-11-16T00:42:29.521Z,51.13
2022-11-16T00:43:29.518Z,56.42
2022-11-16T00:44:29.528Z,58.69
2022-11-16T00:45:29.500Z,57.45
2022-11-16T00:46:29.491Z,45.41
2022-11-16T00:47:29.483Z,45.05
2022-11-16T00:48:29.478Z,48.63
2022-11-16T00:49:29.487Z,62.92
2022-11-16T00:50:29.461Z,59.57
2022-11-16T00:51:29.447Z,54.98
2022-11-16T00:52:29.442Z,49.27
2022-11-16T00:53:29.425Z,45.71
2022-11-16T00:54:29.450Z,42.86
2022-11-16T00:55:29.412Z,42.25
2022-11-16T00:56:29.405Z,46.25
2022-11-16T00:57:29.398Z,51.32
2022-11-16T00:58:29.409Z,63.95
2022-11-16T00:59:29.408Z,58.69
2022-11-16T01:00:29.378Z,60.20
2022-11-16T01:01:29.456Z,60.08
2022-11-16T01:02:29.355Z,54.98
2022-11-16T01:03:29.352Z,48.45
2022-11-16T01:04:29.379Z,66.02
2022-11-16T01:05:29.335Z,58.67
2022-11-16T01:06:29.328Z,55.21
2022-11-16T01:07:29.388Z,46.32
2022-11-16T01:08:29.309Z,58.74
2022-11-16T01:09:29.329Z,51.82
2022-11-16T01:10:29.300Z,47.08
2022-11-16T01:11:29.284Z,58.51
2022-11-16T01:12:29.279Z,59.30
2022-11-16T01:13:29.270Z,60.16
2022-11-16T01:14:29.291Z,56.71
2022-11-16T01:15:29.258Z,48.07
2022-11-16T01:16:29.245Z,56.95
2022-11-16T01:17:29.237Z,60.89
2022-11-16T01:18:29.232Z,55.21
2022-11-16T01:19:29.250Z,50.14
2022-11-16T01:20:29.219Z,58.55
2022-11-16T01:21:29.211Z,58.62
2022-11-16T01:22:29.204Z,55.43
2022-11-16T01:23:29.192Z,49.41
2022-11-16T01:24:29.215Z,55.39
2022-11-16T01:25:29.184Z,64.19
2022-11-16T01:26:29.168Z,56.93
2022-11-16T01:27:29.158Z,51.71
2022-11-16T01:28:29.148Z,50.17
2022-11-16T01:29:29.169Z,53.66
2022-11-16T01:30:29.137Z,61.97
2022-11-16T01:31:29.126Z,55.13
2022-11-16T01:32:29.121Z,46.22
2022-11-16T01:33:29.111Z,54.29
2022-11-16T01:34:29.133Z,60.18
2022-11-16T01:35:29.092Z,51.85
2022-11-16T01:36:29.087Z,52.72
2022-11-16T01:37:29.078Z,51.90
2022-11-16T01:38:30.128Z,55.36
2022-11-16T01:39:30.090Z,54.27
2022-11-16T01:40:29.055Z,50.57
2022-11-16T01:41:29.050Z,53.61
2022-11-16T01:42:29.042Z,48.89
2022-11-16T01:43:29.033Z,53.51
2022-11-16T01:44:29.049Z,56.13
2022-11-16T01:45:29.017Z,53.55
2022-11-16T01:46:29.013Z,50.64
2022-11-16T01:47:29.007Z,54.99
2022-11-16T01:48:29.023Z,51.82
2022-11-16T01:49:29.016Z,51.83
2022-11-16T01:50:28.985Z,52.34
2022-11-16T01:51:28.975Z,57.03
2022-11-16T01:52:28.972Z,61.61
2022-11-16T01:53:28.960Z,54.61
2022-11-16T01:54:28.977Z,54.64
2022-11-16T01:55:28.945Z,51.62
2022-11-16T01:56:28.935Z,49.43
2022-11-16T01:57:28.932Z,58.52
2022-11-16T01:58:28.918Z,51.91
2022-11-16T01:59:28.937Z,57.12
2022-11-16T02:00:28.907Z,58.52
2022-11-16T02:01:29.023Z,49.21
2022-11-16T02:02:28.895Z,49.77
2022-11-16T02:03:28.880Z,49.85
2022-11-16T02:04:28.906Z,54.21
2022-11-16T02:05:28.866Z,58.77
2022-11-16T02:06:28.859Z,49.65
2022-11-16T02:07:28.881Z,56.63
2022-11-16T02:08:28.840Z,51.04
2022-11-16T02:09:28.865Z,57.09
2022-11-16T02:10:28.829Z,57.24
2022-11-16T02:11:28.816Z,55.53
2022-11-16T02:12:28.814Z,54.33
2022-11-16T02:13:28.799Z,63.74
2022-11-16T02:14:28.827Z,56.14
2022-11-16T02:15:28.785Z,57.36
2022-11-16T02:16:28.776Z,53.57
2022-11-16T02:17:28.769Z,59.11
2022-11-16T02:18:28.764Z,45.91
2022-11-16T02:19:28.753Z,49.96
2022-11-16T02:20:28.772Z,53.60
2022-11-16T02:21:28.738Z,54.93
2022-11-16T02:22:28.732Z,53.44
2022-11-16T02:23:28.732Z,52.72
2022-11-16T02:24:28.754Z,47.49
2022-11-16T02:25:28.710Z,57.14
2022-11-16T02:26:28.707Z,61.82
2022-11-16T02:27:28.693Z,55.28
2022-11-16T02:28:28.690Z,66.42
2022-11-16T02:29:28.681Z,60.94
2022-11-16T02:30:28.697Z,65.72
2022-11-16T02:31:28.670Z,52.02
2022-11-16T02:32:28.661Z,50.68
2022-11-16T02:33:28.654Z,58.27
2022-11-16T02:34:28.647Z,62.22
2022-11-16T02:35:28.663Z,52.41
2022-11-16T02:36:28.625Z,54.83
2022-11-16T02:37:28.621Z,57.91
2022-11-16T02:38:28.614Z,57.09
2022-11-16T02:39:28.605Z,58.91
2022-11-16T02:40:28.621Z,47.69
2022-11-16T02:41:28.590Z,52.27
2022-11-16T02:42:28.580Z,66.75
2022-11-16T02:43:28.573Z,48.84
2022-11-16T02:44:28.568Z,57.02
2022-11-16T02:45:28.585Z,46.11
2022-11-16T02:46:28.559Z,68.07
2022-11-16T02:47:28.551Z,49.65
2022-11-16T02:48:28.545Z,41.39
2022-11-16T02:49:28.530Z,50.86
2022-11-16T02:50:28.551Z,47.72
2022-11-16T02:51:28.519Z,64.14
2022-11-16T02:52:28.514Z,57.08
2022-11-16T02:53:28.504Z,55.41
2022-11-16T02:54:28.491Z,52.93
2022-11-16T02:55:28.516Z,49.56
2022-11-16T02:56:28.505Z,45.99
2022-11-16T02:57:28.475Z,54.15
2022-11-16T02:58:28.468Z,52.12
2022-11-16T02:59:28.459Z,44.43
2022-11-16T03:00:28.477Z,46.58
2022-11-16T03:01:28.493Z,52.21
2022-11-16T03:02:28.439Z,51.00
2022-11-16T03:03:28.423Z,47.68
2022-11-16T03:04:28.417Z,60.35
2022-11-16T03:05:28.437Z,58.43
2022-11-16T03:06:28.401Z,55.08
2022-11-16T03:07:28.457Z,45.45
2022-11-16T03:08:28.390Z,52.30
2022-11-16T03:09:28.387Z,49.03
2022-11-16T03:10:28.398Z,62.15
2022-11-16T03:11:28.364Z,53.61
2022-11-16T03:12:28.354Z,53.69
2022-11-16T03:13:28.351Z,52.76
2022-11-16T03:14:28.343Z,49.61
2022-11-16T03:15:28.363Z,60.54
2022-11-16T03:16:28.336Z,56.72
2022-11-16T03:17:28.324Z,59.04
2022-11-16T03:18:28.312Z,49.48
2022-11-16T03:19:28.303Z,57.07
2022-11-16T03:20:28.320Z,48.11
2022-11-16T03:21:28.290Z,56.25
2022-11-16T03:22:28.283Z,56.18
2022-11-16T03:23:28.277Z,53.44
2022-11-16T03:24:28.264Z,50.97
2022-11-16T03:25:28.281Z,55.07
2022-11-16T03:26:28.248Z,52.89
2022-11-16T03:27:28.241Z,51.66
2022-11-16T03:28:28.238Z,59.96
2022-11-16T03:29:28.226Z,54.41
2022-11-16T03:30:28.246Z,59.51
2022-11-16T03:31:28.212Z,57.80
2022-11-16T03:32:28.204Z,53.91
2022-11-16T03:33:28.198Z,53.00
2022-11-16T03:34:28.187Z,58.20
2022-11-16T03:35:28.211Z,56.11
2022-11-16T03:36:28.173Z,53.86
2022-11-16T03:37:28.161Z,62.81
2022-11-16T03:38:28.154Z,58.63
2022-11-16T03:39:28.151Z,54.75
2022-11-16T03:40:28.166Z,58.72
2022-11-16T03:41:28.133Z,60.82
2022-11-16T03:42:28.130Z,55.30
2022-11-16T03:43:28.125Z,56.79
2022-11-16T03:44:28.112Z,56.03
2022-11-16T03:45:28.133Z,51.43
2022-11-16T03:46:28.092Z,57.92
2022-11-16T03:47:28.084Z,64.04
2022-11-16T03:48:28.070Z,61.66
2022-11-16T03:49:29.074Z,58.66
2022-11-16T03:50:28.095Z,57.34
2022-11-16T03:51:28.059Z,62.69
2022-11-16T03:52:28.052Z,59.80
2022-11-16T03:53:28.042Z,59.16
2022-11-16T03:54:28.031Z,55.03
2022-11-16T03:55:28.026Z,56.91
2022-11-16T03:56:28.044Z,60.17
2022-11-16T03:57:28.014Z,55.22
2022-11-16T03:58:28.004Z,63.99
2022-11-16T03:59:27.999Z,65.43
2022-11-16T04:00:27.994Z,58.38
2022-11-16T04:01:28.065Z,60.42
2022-11-16T04:02:27.979Z,61.72
2022-11-16T04:03:27.970Z,61.90
2022-11-16T04:04:27.965Z,57.79
2022-11-16T04:05:27.955Z,61.27
2022-11-16T04:06:27.970Z,66.34
2022-11-16T04:07:28.040Z,63.25
2022-11-16T04:08:27.932Z,65.55
2022-11-16T04:09:27.922Z,58.60
2022-11-16T04:10:27.918Z,59.08
2022-11-16T04:11:27.931Z,62.23
2022-11-16T04:12:27.898Z,60.25
2022-11-16T04:13:27.896Z,58.37
2022-11-16T04:14:27.884Z,63.43
2022-11-16T04:15:27.873Z,64.85
2022-11-16T04:16:27.893Z,60.32
2022-11-16T04:17:27.857Z,63.26
2022-11-16T04:18:27.856Z,59.62
2022-11-16T04:19:27.842Z,63.10
2022-11-16T04:20:27.837Z,60.98
2022-11-16T04:21:27.850Z,63.75
2022-11-16T04:22:27.819Z,66.03
2022-11-16T04:23:27.823Z,62.39
2022-11-16T04:24:27.803Z,58.56
2022-11-16T04:25:27.797Z,61.37
2022-11-16T04:26:27.811Z,60.94
2022-11-16T04:27:27.777Z,60.51
2022-11-16T04:28:27.775Z,62.46
2022-11-16T04:29:27.760Z,62.67
2022-11-16T04:30:27.750Z,61.80
2022-11-16T04:31:27.771Z,61.54
2022-11-16T04:32:27.739Z,62.88
2022-11-16T04:33:27.730Z,65.81
2022-11-16T04:34:27.722Z,62.10
2022-11-16T04:35:27.716Z,62.04
2022-11-16T04:36:27.730Z,64.92
2022-11-16T04:37:27.702Z,63.01
2022-11-16T04:38:27.689Z,61.25
2022-11-16T04:39:27.683Z,62.77
2022-11-16T04:40:27.682Z,61.21
2022-11-16T04:41:27.699Z,64.52
2022-11-16T04:42:27.665Z,64.76
2022-11-16T04:43:27.652Z,63.28
2022-11-16T04:44:30.068Z,61.87
2022-11-16T04:45:28.640Z,61.28
2022-11-16T04:46:27.661Z,62.43
2022-11-16T04:47:27.626Z,65.30
2022-11-16T04:48:27.614Z,60.03
2022-11-16T04:49:27.602Z,62.46
2022-11-16T04:50:27.593Z,64.74
2022-11-16T04:51:27.598Z,60.55
2022-11-16T04:52:27.610Z,59.22
2022-11-16T04:53:27.578Z,61.65
2022-11-16T04:54:27.572Z,63.79
2022-11-16T04:55:27.563Z,58.74
2022-11-16T04:56:27.563Z,59.83
2022-11-16T04:57:27.567Z,65.96
2022-11-16T04:58:27.542Z,66.32
2022-11-16T04:59:27.534Z,64.52
2022-11-16T05:00:27.523Z,61.99
2022-11-16T05:01:27.561Z,62.97
2022-11-16T05:02:27.539Z,64.25
2022-11-16T05:03:27.502Z,59.54
2022-11-16T05:04:27.490Z,62.52
2022-11-16T05:05:27.481Z,65.19
2022-11-16T05:06:27.479Z,61.13
2022-11-16T05:07:27.575Z,61.79
2022-11-16T05:08:27.464Z,63.83
2022-11-16T05:09:27.446Z,66.32
2022-11-16T05:10:28.446Z,63.66
2022-11-16T05:11:27.438Z,62.00
2022-11-16T05:12:27.451Z,66.33
2022-11-16T05:13:27.427Z,65.78
2022-11-16T05:14:27.417Z,64.96
2022-11-16T05:15:27.406Z,63.72
2022-11-16T05:16:27.395Z,65.46
2022-11-16T05:17:27.420Z,64.42
2022-11-16T05:18:27.379Z,65.77
2022-11-16T05:19:27.374Z,64.22
2022-11-16T05:20:27.363Z,62.67
2022-11-16T05:21:27.359Z,68.10
2022-11-16T05:22:27.380Z,64.70
2022-11-16T05:23:27.341Z,63.40
2022-11-16T05:24:27.336Z,61.38
2022-11-16T05:25:28.523Z,65.30
2022-11-16T05:26:27.318Z,64.13
2022-11-16T05:27:27.337Z,63.21
2022-11-16T05:28:27.313Z,63.46
2022-11-16T05:29:27.299Z,63.19
2022-11-16T05:30:27.289Z,69.19
2022-11-16T05:31:27.280Z,64.33
2022-11-16T05:32:27.303Z,63.53
2022-11-16T05:33:27.267Z,68.33
2022-11-16T05:34:27.260Z,66.75
2022-11-16T05:35:27.261Z,63.68
2022-11-16T05:36:27.243Z,63.24
2022-11-16T05:37:27.272Z,65.59
2022-11-16T05:38:27.232Z,65.08
2022-11-16T05:39:27.219Z,65.18
2022-11-16T05:40:27.216Z,66.66
2022-11-16T05:41:27.213Z,64.84
2022-11-16T05:42:27.228Z,65.23
2022-11-16T05:43:27.191Z,66.31
2022-11-16T05:44:27.189Z,68.46
2022-11-16T05:45:27.175Z,63.31
2022-11-16T05:46:27.171Z,66.79
2022-11-16T05:47:27.192Z,67.65
2022-11-16T05:48:27.157Z,67.79
2022-11-16T05:49:27.136Z,67.83
2022-11-16T05:50:27.132Z,67.51
2022-11-16T05:51:27.126Z,65.74
2022-11-16T05:52:27.120Z,64.88
2022-11-16T05:53:27.139Z,65.27
2022-11-16T05:54:27.100Z,65.19
2022-11-16T05:55:27.097Z,67.40
2022-11-16T05:56:27.118Z,66.83
2022-11-16T05:57:27.078Z,64.78
2022-11-16T05:58:27.100Z,64.03
2022-11-16T05:59:27.062Z,67.39
2022-11-16T06:00:27.064Z,61.97
2022-11-16T06:01:27.044Z,63.84
2022-11-16T06:02:27.048Z,58.61
2022-11-16T06:03:27.110Z,64.65
2022-11-16T06:04:27.021Z,65.29
2022-11-16T06:05:27.017Z,65.46
2022-11-16T06:06:27.012Z,65.73
2022-11-16T06:07:27.050Z,62.30
2022-11-16T06:08:27.024Z,64.66
2022-11-16T06:09:26.987Z,65.41
2022-11-16T06:10:26.987Z,67.37
2022-11-16T06:11:31.392Z,65.78
2022-11-16T06:12:28.964Z,65.86
2022-11-16T06:13:26.992Z,65.06
2022-11-16T06:14:26.952Z,63.84
2022-11-16T06:15:26.950Z,65.58
2022-11-16T06:16:27.186Z,65.31
2022-11-16T06:17:26.931Z,65.17
2022-11-16T06:18:26.946Z,65.30
2022-11-16T06:19:32.030Z,63.81
2022-11-16T06:20:28.906Z,65.63
2022-11-16T06:21:26.900Z,65.90
2022-11-16T06:22:26.889Z,63.99
2022-11-16T06:23:26.907Z,64.41
2022-11-16T06:24:26.872Z,62.87
2022-11-16T06:25:26.868Z,65.09
2022-11-16T06:26:26.859Z,65.32
2022-11-16T06:27:26.849Z,62.71
2022-11-16T06:28:26.869Z,63.23
2022-11-16T06:29:26.839Z,62.40
2022-11-16T06:30:26.828Z,57.27
2022-11-16T06:31:26.818Z,54.53
2022-11-16T06:32:26.886Z,60.52
2022-11-16T06:33:29.666Z,59.16
2022-11-16T06:34:28.799Z,60.11
2022-11-16T06:35:26.790Z,61.51
2022-11-16T06:36:26.773Z,64.15
2022-11-16T06:37:26.771Z,61.28
2022-11-16T06:38:26.788Z,63.21
2022-11-16T06:39:26.762Z,66.20
2022-11-16T06:40:26.753Z,64.48
2022-11-16T06:41:26.751Z,64.70
2022-11-16T06:42:26.739Z,62.49
2022-11-16T06:43:26.778Z,63.03
2022-11-16T06:44:26.724Z,64.73
2022-11-16T06:45:26.716Z,64.52
2022-11-16T06:46:26.705Z,65.93
2022-11-16T06:47:26.695Z,66.15
2022-11-16T06:48:26.747Z,63.44
2022-11-16T06:49:26.690Z,62.09
2022-11-16T06:50:26.677Z,62.03
2022-11-16T06:51:26.668Z,64.11
2022-11-16T06:52:26.658Z,65.27
2022-11-16T06:53:29.405Z,64.36
2022-11-16T06:54:27.647Z,63.39
2022-11-16T06:55:26.628Z,63.04
2022-11-16T06:56:26.626Z,63.15
2022-11-16T06:57:26.615Z,63.03
2022-11-16T06:58:26.637Z,63.53
2022-11-16T06:59:26.610Z,61.52
2022-11-16T07:00:26.599Z,60.58
2022-11-16T07:01:26.641Z,61.65
2022-11-16T07:02:26.581Z,59.30
2022-11-16T07:03:26.572Z,60.34
2022-11-16T07:04:26.662Z,64.42
2022-11-16T07:05:26.561Z,62.52
2022-11-16T07:06:26.553Z,62.44
2022-11-16T07:07:26.569Z,64.58
2022-11-16T07:08:26.533Z,62.39
2022-11-16T07:09:26.548Z,72.76
2022-11-16T07:10:26.518Z,64.13
2022-11-16T07:11:26.512Z,58.60
2022-11-16T07:12:26.502Z,63.40
2022-11-16T07:13:26.496Z,61.09
2022-11-16T07:14:26.509Z,62.54
2022-11-16T07:15:26.473Z,63.22
2022-11-16T07:16:26.478Z,59.06
2022-11-16T07:17:26.464Z,63.78
2022-11-16T07:18:26.457Z,62.81
2022-11-16T07:19:26.476Z,63.20
2022-11-16T07:20:26.504Z,59.60
2022-11-16T07:21:27.433Z,61.05
2022-11-16T07:22:27.424Z,66.78
2022-11-16T07:23:26.416Z,65.66
2022-11-16T07:24:26.437Z,69.29
2022-11-16T07:25:26.408Z,65.48
2022-11-16T07:26:26.426Z,62.01
2022-11-16T07:27:26.389Z,61.27
2022-11-16T07:28:26.382Z,63.02
2022-11-16T07:29:26.400Z,65.92
2022-11-16T07:30:26.376Z,63.03
2022-11-16T07:31:26.359Z,65.66
2022-11-16T07:32:26.353Z,66.73
2022-11-16T07:33:26.347Z,63.57
2022-11-16T07:34:26.358Z,60.91
2022-11-16T07:35:26.323Z,63.59
2022-11-16T07:36:26.418Z,64.79
2022-11-16T07:37:26.331Z,60.65
2022-11-16T07:38:26.305Z,60.44
2022-11-16T07:39:26.321Z,58.36
2022-11-16T07:40:26.284Z,62.60
2022-11-16T07:41:26.278Z,63.06
2022-11-16T07:42:26.264Z,62.87
2022-11-16T07:43:26.258Z,60.98
2022-11-16T07:44:26.282Z,64.17
2022-11-16T07:45:26.248Z,62.77
2022-11-16T07:47:28.230Z,66.64
2022-11-16T07:48:26.217Z,61.43
2022-11-16T07:49:26.231Z,63.36
2022-11-16T07:50:26.203Z,65.89
2022-11-16T07:51:26.191Z,65.01
2022-11-16T07:52:26.272Z,63.19
2022-11-16T07:53:26.179Z,58.83
2022-11-16T07:54:26.236Z,60.79
2022-11-16T07:55:26.169Z,60.46
2022-11-16T07:56:26.161Z,65.26
2022-11-16T07:57:26.146Z,62.92
2022-11-16T07:58:26.140Z,62.56
2022-11-16T07:59:26.159Z,62.52
2022-11-16T08:00:26.127Z,62.65
2022-11-16T08:01:26.166Z,64.69
2022-11-16T08:02:26.118Z,62.89
2022-11-16T08:03:26.102Z,62.17
2022-11-16T08:04:26.121Z,62.23
2022-11-16T08:05:26.087Z,60.24
2022-11-16T08:06:26.077Z,63.15
2022-11-16T08:07:26.088Z,61.69
2022-11-16T08:08:26.134Z,61.92
2022-11-16T08:09:26.079Z,60.13
2022-11-16T08:10:26.096Z,62.42
2022-11-16T08:11:26.045Z,61.76
2022-11-16T08:12:26.030Z,61.13
2022-11-16T08:13:26.020Z,64.84
2022-11-16T08:14:26.038Z,63.22
2022-11-16T08:15:26.006Z,64.10
2022-11-16T08:16:26.003Z,64.36
2022-11-16T08:17:25.991Z,60.52
2022-11-16T08:18:25.976Z,62.06
2022-11-16T08:19:25.996Z,64.11
2022-11-16T08:20:25.962Z,60.25
2022-11-16T08:21:25.948Z,61.48
2022-11-16T08:22:26.948Z,60.82
2022-11-16T08:23:25.939Z,61.69
2022-11-16T08:24:26.030Z,64.50
2022-11-16T08:25:25.923Z,64.43
2022-11-16T08:26:25.921Z,64.53
2022-11-16T08:27:25.906Z,61.64
2022-11-16T08:28:25.899Z,57.23
2022-11-16T08:29:25.922Z,62.76
2022-11-16T08:30:25.887Z,58.09
2022-11-16T08:31:25.869Z,60.97
2022-11-16T08:32:25.868Z,63.82
2022-11-16T08:33:25.857Z,64.18
2022-11-16T08:34:25.874Z,62.55
2022-11-16T08:35:25.843Z,62.02
2022-11-16T08:36:25.838Z,57.75
2022-11-16T08:37:25.828Z,61.06
2022-11-16T08:38:25.823Z,58.62
2022-11-16T08:39:25.807Z,63.72
2022-11-16T08:40:25.903Z,58.69
2022-11-16T08:41:25.796Z,61.49
2022-11-16T08:42:25.789Z,57.92
2022-11-16T08:43:25.779Z,63.89
2022-11-16T08:44:25.770Z,60.98
2022-11-16T08:45:25.791Z,61.47
2022-11-16T08:46:25.758Z,61.33
2022-11-16T08:47:25.744Z,63.34
2022-11-16T08:48:25.722Z,65.49
2022-11-16T08:49:26.729Z,62.34
2022-11-16T08:50:25.798Z,62.47
2022-11-16T08:51:25.720Z,60.13
2022-11-16T08:52:25.731Z,62.10
2022-11-16T08:53:25.703Z,60.79
2022-11-16T08:54:25.690Z,57.15
2022-11-16T08:55:25.708Z,56.28
2022-11-16T08:56:25.746Z,47.97
2022-11-16T08:57:25.669Z,64.20
2022-11-16T08:58:25.660Z,60.43
2022-11-16T08:59:25.652Z,58.45
2022-11-16T09:00:25.670Z,65.82
2022-11-16T09:01:25.692Z,60.08
2022-11-16T09:02:25.879Z,63.09
2022-11-16T09:03:25.616Z,61.82
2022-11-16T09:04:25.611Z,62.41
2022-11-16T09:05:25.629Z,64.56
2022-11-16T09:06:25.604Z,66.48
2022-11-16T09:07:25.658Z,56.56
2022-11-16T09:08:25.582Z,60.84
2022-11-16T09:09:25.567Z,62.86
2022-11-16T09:10:25.594Z,58.18
2022-11-16T09:11:25.557Z,60.05
2022-11-16T09:12:25.544Z,60.49
2022-11-16T09:13:25.543Z,64.04
2022-11-16T09:14:25.524Z,62.04
2022-11-16T09:15:26.546Z,57.44
2022-11-16T09:16:25.524Z,62.96
2022-11-16T09:17:25.515Z,63.16
2022-11-16T09:18:25.499Z,59.60
2022-11-16T09:19:25.495Z,60.58
2022-11-16T09:20:25.513Z,61.33
2022-11-16T09:21:25.480Z,63.14
2022-11-16T09:22:25.476Z,60.16
2022-11-16T09:23:25.899Z,61.80
2022-11-16T09:24:26.463Z,60.50
2022-11-16T09:25:25.450Z,58.62
2022-11-16T09:26:25.468Z,61.06
2022-11-16T09:27:25.433Z,63.10
2022-11-16T09:28:25.426Z,59.94
2022-11-16T09:29:25.418Z,60.86
2022-11-16T09:30:25.418Z,64.07
2022-11-16T09:31:25.430Z,63.88
2022-11-16T09:32:25.389Z,60.98
2022-11-16T09:33:25.381Z,61.56
2022-11-16T09:34:25.375Z,59.07
2022-11-16T09:35:25.378Z,64.26
2022-11-16T09:36:25.382Z,61.68
2022-11-16T09:37:25.355Z,59.02
2022-11-16T09:38:40.174Z,60.59
2022-11-16T09:39:31.094Z,59.07
2022-11-16T09:40:26.333Z,57.96
2022-11-16T09:41:25.347Z,62.99
2022-11-16T09:42:25.319Z,64.89
2022-11-16T09:43:25.309Z,62.69
2022-11-16T09:44:25.375Z,55.09
2022-11-16T09:45:25.293Z,58.82
2022-11-16T09:46:25.312Z,59.55
2022-11-16T09:47:25.278Z,60.25
2022-11-16T09:48:25.277Z,61.75
2022-11-16T09:49:25.283Z,57.46
2022-11-16T09:50:25.257Z,59.26
2022-11-16T09:51:25.273Z,55.43
2022-11-16T09:52:25.234Z,62.28
2022-11-16T09:53:25.232Z,54.37
2022-11-16T09:54:25.220Z,59.94
2022-11-16T09:55:25.224Z,62.14
2022-11-16T09:56:25.234Z,61.26
2022-11-16T09:57:25.206Z,61.94
2022-11-16T09:58:25.197Z,54.37
2022-11-16T09:59:25.180Z,60.63
2022-11-16T10:00:25.309Z,60.04
2022-11-16T10:01:25.237Z,60.23
2022-11-16T10:02:25.163Z,55.22
2022-11-16T10:03:25.163Z,51.87
2022-11-16T10:04:25.151Z,62.02
2022-11-16T10:05:25.135Z,60.00
2022-11-16T10:06:25.191Z,60.22
2022-11-16T10:07:25.143Z,60.40
2022-11-16T10:08:25.114Z,60.07
2022-11-16T10:09:25.113Z,55.23
2022-11-16T10:10:25.093Z,61.34
2022-11-16T10:11:25.123Z,59.83
2022-11-16T10:12:25.078Z,58.58
2022-11-16T10:13:25.072Z,58.62
2022-11-16T10:14:25.072Z,58.46
2022-11-16T10:15:25.062Z,57.04
2022-11-16T10:16:25.095Z,60.80
2022-11-16T10:17:25.066Z,55.97
2022-11-16T10:18:25.033Z,58.06
2022-11-16T10:19:25.055Z,54.85
2022-11-16T10:20:30.219Z,60.82
2022-11-16T10:21:27.027Z,58.41
2022-11-16T10:22:24.999Z,55.58
2022-11-16T10:23:25.023Z,55.77
2022-11-16T10:24:24.995Z,56.05
2022-11-16T10:25:24.983Z,63.10
2022-11-16T10:26:24.968Z,58.32
2022-11-16T10:27:24.984Z,56.89
2022-11-16T10:28:24.953Z,59.67
2022-11-16T10:29:24.944Z,59.96
2022-11-16T10:30:24.940Z,56.92
2022-11-16T10:31:24.927Z,58.22
2022-11-16T10:32:25.026Z,56.54
2022-11-16T10:33:24.911Z,63.36
2022-11-16T10:34:24.904Z,58.15
2022-11-16T10:35:24.896Z,54.55
2022-11-16T10:36:24.887Z,58.12
2022-11-16T10:37:24.904Z,60.77
2022-11-16T10:38:24.874Z,56.19
2022-11-16T10:39:24.860Z,56.01
2022-11-16T10:40:24.855Z,57.33
2022-11-16T10:41:24.845Z,54.37
2022-11-16T10:42:24.865Z,53.29
2022-11-16T10:43:24.833Z,57.89
2022-11-16T10:44:24.839Z,56.02
2022-11-16T10:45:24.815Z,57.89
2022-11-16T10:46:24.808Z,57.44
2022-11-16T10:47:28.189Z,55.88
2022-11-16T10:48:25.833Z,57.32
2022-11-16T10:49:24.779Z,60.77
2022-11-16T10:50:24.775Z,59.68
2022-11-16T10:51:24.775Z,59.60
2022-11-16T10:52:24.778Z,54.17
2022-11-16T10:53:24.747Z,56.73
2022-11-16T10:54:24.738Z,58.52
2022-11-16T10:55:24.724Z,56.01
2022-11-16T10:56:24.722Z,55.56
2022-11-16T10:57:24.738Z,56.01
2022-11-16T10:58:24.709Z,52.21
2022-11-16T10:59:24.701Z,55.93
2022-11-16T11:00:24.698Z,52.88
2022-11-16T11:01:24.712Z,59.73
2022-11-16T11:02:24.698Z,56.97
2022-11-16T11:03:24.669Z,58.83
2022-11-16T11:04:24.684Z,58.73
2022-11-16T11:05:24.648Z,55.56
2022-11-16T11:06:24.641Z,58.90
2022-11-16T11:07:24.714Z,56.89
2022-11-16T11:08:24.625Z,59.23
2022-11-16T11:09:24.618Z,54.13
2022-11-16T11:10:25.072Z,56.94
2022-11-16T11:11:24.607Z,51.75
2022-11-16T11:12:24.626Z,56.80
2022-11-16T11:13:24.585Z,54.85
2022-11-16T11:14:24.580Z,59.58
2022-11-16T11:15:26.456Z,58.85
2022-11-16T11:16:25.599Z,58.44
2022-11-16T11:17:24.573Z,53.15
2022-11-16T11:18:24.590Z,54.52
2022-11-16T11:19:24.552Z,56.79
2022-11-16T11:20:24.605Z,59.38
2022-11-16T11:21:24.520Z,66.53
2022-11-16T11:22:24.516Z,60.01
2022-11-16T11:23:24.541Z,56.73
2022-11-16T11:25:26.498Z,55.82
2022-11-16T11:26:24.489Z,54.85
2022-11-16T11:27:24.581Z,59.96
2022-11-16T11:28:24.507Z,52.53
2022-11-16T11:29:24.464Z,60.04
2022-11-16T11:30:24.460Z,57.14
2022-11-16T11:31:24.452Z,57.81
2022-11-16T11:32:24.865Z,55.90
2022-11-16T11:33:25.461Z,56.07
2022-11-16T11:34:24.425Z,53.03
2022-11-16T11:35:24.414Z,54.22
2022-11-16T11:36:24.490Z,56.88
2022-11-16T11:37:24.419Z,57.79
2022-11-16T11:38:24.426Z,54.75
2022-11-16T11:39:24.453Z,58.07
2022-11-16T11:40:24.376Z,57.86
2022-11-16T11:41:24.375Z,56.46
2022-11-16T11:42:24.369Z,57.71
2022-11-16T11:43:24.414Z,54.23
2022-11-16T11:44:24.357Z,58.64
2022-11-16T11:45:24.341Z,59.15
2022-11-16T11:46:30.664Z,58.38
2022-11-16T11:48:26.347Z,57.77
2022-11-16T11:49:27.921Z,57.20
2022-11-16T11:50:25.312Z,60.61
2022-11-16T11:51:24.297Z,58.04
2022-11-16T11:52:24.368Z,54.56
2022-11-16T11:53:24.310Z,49.85
2022-11-16T11:54:24.279Z,56.90
2022-11-16T11:55:24.278Z,55.56
2022-11-16T11:56:24.261Z,55.32
2022-11-16T11:57:24.274Z,57.05
2022-11-16T11:58:24.420Z,52.84
2022-11-16T11:59:24.241Z,56.25
2022-11-16T12:00:24.238Z,60.24
2022-11-16T12:01:25.690Z,57.06
2022-11-16T12:02:25.211Z,58.84
2022-11-16T12:03:24.277Z,58.36
2022-11-16T12:04:24.201Z,54.96
2022-11-16T12:05:24.195Z,60.54
2022-11-16T12:06:24.180Z,60.17
2022-11-16T12:07:24.301Z,54.90
2022-11-16T12:08:24.250Z,60.22
2022-11-16T12:09:24.188Z,59.93
2022-11-16T12:10:24.149Z,60.05
2022-11-16T12:11:24.144Z,55.96
2022-11-16T12:12:24.133Z,56.99
2022-11-16T12:13:24.127Z,58.27
2022-11-16T12:14:24.145Z,59.42
2022-11-16T12:15:24.116Z,58.67
2022-11-16T12:16:24.106Z,57.46
2022-11-16T12:17:24.096Z,52.94
2022-11-16T12:18:24.088Z,63.94
2022-11-16T12:19:24.104Z,69.27
2022-11-16T12:20:24.077Z,59.85
2022-11-16T12:21:24.066Z,58.85
2022-11-16T12:22:24.054Z,59.10
2022-11-16T12:23:24.051Z,55.93
2022-11-16T12:24:24.153Z,55.61
2022-11-16T12:25:24.037Z,59.12
2022-11-16T12:26:24.034Z,59.16
2022-11-16T12:27:24.075Z,55.17
2022-11-16T12:28:24.009Z,54.64
2022-11-16T12:29:24.022Z,56.53
2022-11-16T12:30:25.002Z,57.81
2022-11-16T12:31:23.991Z,57.84
2022-11-16T12:32:23.984Z,58.90
2022-11-16T12:33:24.025Z,55.01
2022-11-16T12:34:23.994Z,56.05
2022-11-16T12:35:23.960Z,52.74
2022-11-16T12:36:23.952Z,54.22
2022-11-16T12:37:23.940Z,57.89
2022-11-16T12:38:26.398Z,58.26
2022-11-16T12:39:24.951Z,57.67
2022-11-16T12:40:23.913Z,55.03
2022-11-16T12:41:23.906Z,55.85
2022-11-16T12:42:23.898Z,60.27
2022-11-16T12:43:23.892Z,59.44
2022-11-16T12:44:23.907Z,58.55
2022-11-16T12:45:29.018Z,54.85
2022-11-16T12:46:25.864Z,57.76
2022-11-16T12:47:23.865Z,59.92
2022-11-16T12:48:23.853Z,54.76
2022-11-16T12:49:23.869Z,53.80
2022-11-16T12:50:23.836Z,58.35
2022-11-16T12:51:27.543Z,55.54
2022-11-16T12:52:25.817Z,58.92
2022-11-16T12:53:23.811Z,53.10
2022-11-16T12:54:23.825Z,54.48
2022-11-16T12:55:26.818Z,52.44